Wichita, KS (67215)

6:42 PM CDT on September 16, 2014 (GMT -0500)
Southwest Wichita | Change Station
CLOSE
Current Station
Personal Weather Station
Location: Wichita, KS
Elevation: 1301 ft
Nearby Weather Stations
4.0 Earthquake: Guthrie, Oklahoma (1 day ago)  

Elev 1301 ft 37.58 °N, 97.40 °W | Updated 1 minute ago

Clear
Clear
79.0 °F
Feels Like 81 °F
N
7.0
Wind Variable Wind from SSE
Gusts 7.0 mph

Today
High -- | Low -- °F
--% Chance of Precip.
Yesterday
High -- | Low -- °F
Precip. -- in
7:12 AM 7:35 PM
Last Quarter, 41% visible
Pressure 29.97 in
Visibility 10.0 miles
Clouds Clear
Heat Index 81 °F
Dew Point 63 °F
Humidity 59%
Rainfall 0.00 in
Snow Depth Not available.
UV 0.0 out of 12
Pollen 7.40 out of 12
Air Quality Not available.
Flu Activity Not available.
METAR KICT 162253Z 14012KT 10SM CLR 27/17 A3001 RMK AO2 SLP149 T02670167

More Conditions Fewer Conditions

Pressure 29.97 in
Visibility 10.0 miles
Clouds Clear
Heat Index 81 °F
Dew Point 63 °F
Humidity 59%
Rainfall 0.00 in
Snow Depth Not available.
UV 0.0 out of 12
Pollen 7.40 out of 12
Air Quality Not available.
Flu Activity Not available.
METAR KICT 162253Z 14012KT 10SM CLR 27/17 A3001 RMK AO2 SLP149 T02670167

More Conditions Fewer Conditions

10-Day Weather Forecast

Almanac

Astronomy

Sep. 16, 2014 Rise Set
Actual Time 7:12 AM CDT 7:35 PM CDT
Civil Twilight 6:46 AM CDT 8:02 PM CDT
Nautical Twilight 6:15 AM CDT 8:32 PM CDT
Astronomical Twilight 5:43 AM CDT 9:04 PM CDT
Moon 12:28 AM CDT 2:55 PM CDT
Length of Visible Light 13h 15m
Length of Day
12h 23m
Tomorrow will be 2m 23s shorter.
Last Quarter, 41% of the Moon is Illuminated
Today
Last Quarter
Sep 24
New
Oct 1
First Quarter
Oct 8
Full
Oct 15
Last Quarter

Today's Extremes

State Highs State Lows

Community

WunderPhotos

Upload Photos

1,753,917 photos uploaded!

Nearby

Snow Depth

Station Depth Elevation
No new snow has been reported.

Earthquake Activity

City Distance Mag. Time & Date
Medford, Oklahoma 59 miles 3.3 5:35 PM CDT
2014-09-16
Cherokee, Oklahoma 70 miles 2.6 2:21 PM CDT
2014-09-16
Yale, Oklahoma 108 miles 2.5 9:31 AM CDT
2014-09-16
Yale, Oklahoma 108 miles 2.8 8:49 AM CDT
2014-09-16
Minimum magnitude displayed is 2.5.

Coastal Water Temperatures

Place Temperature
No Stations Reporting

Nearby Weather Stations